sensor_id;sensor_type;location;lat;lon;timestamp;pressure;altitude;pressure_sealevel;temperature;humidity
66381;BME280;53177;52.648;1.214;2022-11-14T00:02:03;100949.75;;;7.84;100.00
66381;BME280;53177;52.648;1.214;2022-11-14T00:04:29;100948.13;;;7.83;100.00
66381;BME280;53177;52.648;1.214;2022-11-14T00:06:54;100939.88;;;7.66;100.00
66381;BME280;53177;52.648;1.214;2022-11-14T00:09:24;100937.63;;;7.63;100.00
66381;BME280;53177;52.648;1.214;2022-11-14T00:11:50;100936.16;;;7.67;100.00
66381;BME280;53177;52.648;1.214;2022-11-14T00:14:15;100926.06;;;7.69;100.00
66381;BME280;53177;52.648;1.214;2022-11-14T00:16:40;100925.00;;;7.70;100.00
66381;BME280;53177;52.648;1.214;2022-11-14T00:19:06;100922.44;;;7.64;100.00
66381;BME280;53177;52.648;1.214;2022-11-14T00:21:31;100917.53;;;7.60;100.00
66381;BME280;53177;52.648;1.214;2022-11-14T00:23:57;100918.19;;;7.74;100.00
66381;BME280;53177;52.648;1.214;2022-11-14T00:26:22;100912.41;;;7.77;100.00
66381;BME280;53177;52.648;1.214;2022-11-14T00:28:47;100915.22;;;7.82;100.00
66381;BME280;53177;52.648;1.214;2022-11-14T00:31:13;100908.66;;;7.78;100.00
66381;BME280;53177;52.648;1.214;2022-11-14T00:33:38;100917.75;;;7.77;100.00
66381;BME280;53177;52.648;1.214;2022-11-14T00:36:04;100903.56;;;7.77;100.00
66381;BME280;53177;52.648;1.214;2022-11-14T00:38:29;100906.72;;;7.67;100.00
66381;BME280;53177;52.648;1.214;2022-11-14T00:40:54;100908.06;;;7.58;100.00
66381;BME280;53177;52.648;1.214;2022-11-14T00:43:20;100898.56;;;7.62;100.00
66381;BME280;53177;52.648;1.214;2022-11-14T00:45:46;100906.28;;;7.70;100.00
66381;BME280;53177;52.648;1.214;2022-11-14T00:48:12;100902.53;;;7.59;100.00
66381;BME280;53177;52.648;1.214;2022-11-14T00:50:38;100891.75;;;7.48;100.00
66381;BME280;53177;52.648;1.214;2022-11-14T00:53:04;100887.06;;;7.43;100.00
66381;BME280;53177;52.648;1.214;2022-11-14T00:55:29;100888.41;;;7.52;100.00
66381;BME280;53177;52.648;1.214;2022-11-14T00:57:55;100888.63;;;7.51;100.00
66381;BME280;53177;52.648;1.214;2022-11-14T01:00:21;100893.22;;;7.44;100.00
66381;BME280;53177;52.648;1.214;2022-11-14T01:02:47;100884.03;;;7.40;100.00
66381;BME280;53177;52.648;1.214;2022-11-14T01:05:12;100878.22;;;7.43;100.00
66381;BME280;53177;52.648;1.214;2022-11-14T01:07:38;100894.41;;;7.48;100.00
66381;BME280;53177;52.648;1.214;2022-11-14T01:10:04;100885.34;;;7.49;100.00
66381;BME280;53177;52.648;1.214;2022-11-14T01:12:29;100893.09;;;7.39;100.00
66381;BME280;53177;52.648;1.214;2022-11-14T01:14:54;100882.38;;;7.39;100.00
66381;BME280;53177;52.648;1.214;2022-11-14T01:17:20;100881.34;;;7.21;100.00
66381;BME280;53177;52.648;1.214;2022-11-14T01:19:45;100877.63;;;7.22;100.00
66381;BME280;53177;52.648;1.214;2022-11-14T01:22:11;100873.19;;;7.16;100.00
66381;BME280;53177;52.648;1.214;2022-11-14T01:24:36;100862.91;;;7.13;100.00
66381;BME280;53177;52.648;1.214;2022-11-14T01:27:02;100859.50;;;7.06;100.00
66381;BME280;53177;52.648;1.214;2022-11-14T01:29:27;100859.00;;;7.16;100.00
66381;BME280;53177;52.648;1.214;2022-11-14T01:31:53;100854.69;;;7.15;100.00
66381;BME280;53177;52.648;1.214;2022-11-14T01:34:18;100849.41;;;7.26;100.00
66381;BME280;53177;52.648;1.214;2022-11-14T01:36:44;100846.59;;;7.21;100.00
66381;BME280;53177;52.648;1.214;2022-11-14T01:39:09;100840.97;;;7.11;100.00
66381;BME280;53177;52.648;1.214;2022-11-14T01:41:34;100835.97;;;6.96;100.00
66381;BME280;53177;52.648;1.214;2022-11-14T01:44:00;100831.50;;;6.90;100.00
66381;BME280;53177;52.648;1.214;2022-11-14T01:49:02;100821.25;;;6.87;100.00
66381;BME280;53177;52.648;1.214;2022-11-14T01:51:45;100813.16;;;6.75;100.00
66381;BME280;53177;52.648;1.214;2022-11-14T01:54:25;100808.50;;;6.71;100.00
66381;BME280;53177;52.648;1.214;2022-11-14T01:56:57;100795.13;;;6.71;100.00
66381;BME280;53177;52.648;1.214;2022-11-14T01:59:35;100807.50;;;6.65;100.00
66381;BME280;53177;52.648;1.214;2022-11-14T02:02:06;100797.66;;;6.66;100.00
66381;BME280;53177;52.648;1.214;2022-11-14T02:04:36;100795.81;;;6.66;100.00
66381;BME280;53177;52.648;1.214;2022-11-14T02:07:04;100789.00;;;6.70;100.00
66381;BME280;53177;52.648;1.214;2022-11-14T02:09:34;100788.66;;;6.78;100.00
66381;BME280;53177;52.648;1.214;2022-11-14T02:12:02;100789.03;;;6.64;100.00
66381;BME280;53177;52.648;1.214;2022-11-14T02:14:29;100792.38;;;6.59;100.00
66381;BME280;53177;52.648;1.214;2022-11-14T02:16:55;100787.84;;;6.59;100.00
66381;BME280;53177;52.648;1.214;2022-11-14T02:19:20;100787.78;;;6.66;100.00
66381;BME280;53177;52.648;1.214;2022-11-14T02:21:46;100786.59;;;6.62;100.00
66381;BME280;53177;52.648;1.214;2022-11-14T02:24:12;100787.69;;;6.54;100.00
66381;BME280;53177;52.648;1.214;2022-11-14T02:26:40;100786.88;;;6.54;100.00
66381;BME280;53177;52.648;1.214;2022-11-14T02:29:07;100787.13;;;6.46;100.00
66381;BME280;53177;52.648;1.214;2022-11-14T02:31:34;100794.50;;;6.25;100.00
66381;BME280;53177;52.648;1.214;2022-11-14T02:33:59;100786.28;;;6.27;100.00
66381;BME280;53177;52.648;1.214;2022-11-14T02:36:25;100785.25;;;6.28;100.00
66381;BME280;53177;52.648;1.214;2022-11-14T02:38:50;100780.72;;;6.28;100.00
66381;BME280;53177;52.648;1.214;2022-11-14T02:41:16;100776.09;;;6.17;100.00
66381;BME280;53177;52.648;1.214;2022-11-14T02:43:41;100763.16;;;6.21;100.00
66381;BME280;53177;52.648;1.214;2022-11-14T02:46:07;100758.47;;;6.16;100.00
66381;BME280;53177;52.648;1.214;2022-11-14T02:48:32;100756.75;;;5.97;100.00
66381;BME280;53177;52.648;1.214;2022-11-14T02:50:58;100750.63;;;5.90;100.00
66381;BME280;53177;52.648;1.214;2022-11-14T02:53:23;100752.69;;;5.94;100.00
66381;BME280;53177;52.648;1.214;2022-11-14T02:55:49;100754.69;;;5.99;100.00
66381;BME280;53177;52.648;1.214;2022-11-14T02:58:14;100750.22;;;5.93;100.00
66381;BME280;53177;52.648;1.214;2022-11-14T03:00:45;100750.56;;;6.03;100.00
66381;BME280;53177;52.648;1.214;2022-11-14T03:03:11;100742.56;;;6.03;100.00
66381;BME280;53177;52.648;1.214;2022-11-14T03:05:36;100741.25;;;6.12;100.00
66381;BME280;53177;52.648;1.214;2022-11-14T03:08:02;100748.06;;;6.08;100.00
66381;BME280;53177;52.648;1.214;2022-11-14T03:10:27;100738.78;;;6.11;100.00
66381;BME280;53177;52.648;1.214;2022-11-14T03:12:56;100727.16;;;6.05;100.00
66381;BME280;53177;52.648;1.214;2022-11-14T03:15:23;100733.69;;;6.09;100.00
66381;BME280;53177;52.648;1.214;2022-11-14T03:17:49;100719.72;;;6.07;100.00
66381;BME280;53177;52.648;1.214;2022-11-14T03:20:16;100723.81;;;6.10;100.00
66381;BME280;53177;52.648;1.214;2022-11-14T03:22:41;100712.78;;;6.06;100.00
66381;BME280;53177;52.648;1.214;2022-11-14T03:25:07;100714.63;;;6.05;100.00
66381;BME280;53177;52.648;1.214;2022-11-14T03:27:32;100714.84;;;6.04;100.00
66381;BME280;53177;52.648;1.214;2022-11-14T03:29:58;100716.72;;;6.03;100.00
66381;BME280;53177;52.648;1.214;2022-11-14T03:32:23;100716.47;;;6.05;100.00
66381;BME280;53177;52.648;1.214;2022-11-14T03:34:48;100711.38;;;6.03;100.00
66381;BME280;53177;52.648;1.214;2022-11-14T03:37:14;100711.56;;;6.02;100.00
66381;BME280;53177;52.648;1.214;2022-11-14T03:39:39;100712.13;;;6.11;100.00
66381;BME280;53177;52.648;1.214;2022-11-14T03:42:05;100711.38;;;6.03;100.00
66381;BME280;53177;52.648;1.214;2022-11-14T03:44:30;100708.69;;;6.03;100.00
66381;BME280;53177;52.648;1.214;2022-11-14T03:46:56;100724.97;;;6.20;100.00
66381;BME280;53177;52.648;1.214;2022-11-14T03:49:21;100710.00;;;5.88;100.00
66381;BME280;53177;52.648;1.214;2022-11-14T03:51:46;100707.41;;;5.81;100.00
66381;BME280;53177;52.648;1.214;2022-11-14T03:54:12;100712.13;;;5.79;100.00
66381;BME280;53177;52.648;1.214;2022-11-14T03:56:37;100715.03;;;5.77;100.00
66381;BME280;53177;52.648;1.214;2022-11-14T03:59:03;100705.59;;;5.75;100.00
66381;BME280;53177;52.648;1.214;2022-11-14T04:01:28;100703.47;;;5.83;100.00
66381;BME280;53177;52.648;1.214;2022-11-14T04:03:54;100712.25;;;5.91;100.00
66381;BME280;53177;52.648;1.214;2022-11-14T04:06:19;100699.34;;;5.94;100.00
66381;BME280;53177;52.648;1.214;2022-11-14T04:08:45;100703.84;;;5.94;100.00
66381;BME280;53177;52.648;1.214;2022-11-14T04:11:10;100691.78;;;5.60;100.00
66381;BME280;53177;52.648;1.214;2022-11-14T04:13:36;100695.84;;;5.62;100.00
66381;BME280;53177;52.648;1.214;2022-11-14T04:16:01;100691.44;;;5.74;100.00
66381;BME280;53177;52.648;1.214;2022-11-14T04:18:27;100691.38;;;5.56;100.00
66381;BME280;53177;52.648;1.214;2022-11-14T04:20:52;100694.28;;;5.79;100.00
66381;BME280;53177;52.648;1.214;2022-11-14T04:23:18;100690.31;;;5.95;100.00
66381;BME280;53177;52.648;1.214;2022-11-14T04:25:45;100697.69;;;5.93;100.00
66381;BME280;53177;52.648;1.214;2022-11-14T04:28:11;100692.31;;;6.00;100.00
66381;BME280;53177;52.648;1.214;2022-11-14T04:30:36;100681.66;;;5.68;100.00
66381;BME280;53177;52.648;1.214;2022-11-14T04:33:02;100674.19;;;5.52;100.00
66381;BME280;53177;52.648;1.214;2022-11-14T04:35:27;100682.31;;;5.64;100.00
66381;BME280;53177;52.648;1.214;2022-11-14T04:37:53;100678.50;;;5.78;100.00
66381;BME280;53177;52.648;1.214;2022-11-14T04:40:19;100680.91;;;5.86;100.00
66381;BME280;53177;52.648;1.214;2022-11-14T04:42:45;100675.69;;;5.98;100.00
66381;BME280;53177;52.648;1.214;2022-11-14T04:45:10;100663.81;;;5.69;100.00
66381;BME280;53177;52.648;1.214;2022-11-14T04:47:36;100664.56;;;5.76;100.00
66381;BME280;53177;52.648;1.214;2022-11-14T04:50:02;100665.34;;;5.83;100.00
66381;BME280;53177;52.648;1.214;2022-11-14T04:52:28;100665.41;;;5.76;100.00
66381;BME280;53177;52.648;1.214;2022-11-14T04:54:53;100656.38;;;5.77;100.00
66381;BME280;53177;52.648;1.214;2022-11-14T04:57:19;100657.97;;;5.85;100.00
66381;BME280;53177;52.648;1.214;2022-11-14T04:59:44;100647.44;;;5.90;100.00
66381;BME280;53177;52.648;1.214;2022-11-14T05:02:09;100649.13;;;5.84;100.00
66381;BME280;53177;52.648;1.214;2022-11-14T05:04:35;100658.78;;;5.86;100.00
66381;BME280;53177;52.648;1.214;2022-11-14T05:07:00;100661.16;;;5.94;100.00
66381;BME280;53177;52.648;1.214;2022-11-14T05:09:26;100659.28;;;6.01;100.00
66381;BME280;53177;52.648;1.214;2022-11-14T05:11:51;100658.31;;;5.89;100.00
66381;BME280;53177;52.648;1.214;2022-11-14T05:14:17;100660.34;;;5.93;100.00
66381;BME280;53177;52.648;1.214;2022-11-14T05:16:42;100650.06;;;5.72;100.00
66381;BME280;53177;52.648;1.214;2022-11-14T05:19:08;100641.88;;;5.42;100.00
66381;BME280;53177;52.648;1.214;2022-11-14T05:21:33;100640.34;;;5.27;100.00
66381;BME280;53177;52.648;1.214;2022-11-14T05:23:59;100628.31;;;5.18;100.00
66381;BME280;53177;52.648;1.214;2022-11-14T05:26:24;100633.78;;;5.23;100.00
66381;BME280;53177;52.648;1.214;2022-11-14T05:28:50;100629.75;;;5.14;100.00
66381;BME280;53177;52.648;1.214;2022-11-14T05:31:15;100620.38;;;5.05;100.00
66381;BME280;53177;52.648;1.214;2022-11-14T05:33:42;100615.47;;;5.02;100.00
66381;BME280;53177;52.648;1.214;2022-11-14T05:36:10;100615.06;;;5.05;100.00
66381;BME280;53177;52.648;1.214;2022-11-14T05:38:36;100613.00;;;5.07;100.00
66381;BME280;53177;52.648;1.214;2022-11-14T05:41:08;100610.53;;;5.05;100.00
66381;BME280;53177;52.648;1.214;2022-11-14T05:43:34;100614.66;;;5.01;100.00
66381;BME280;53177;52.648;1.214;2022-11-14T05:46:01;100611.75;;;5.10;100.00
66381;BME280;53177;52.648;1.214;2022-11-14T05:48:27;100612.56;;;5.10;100.00
66381;BME280;53177;52.648;1.214;2022-11-14T05:50:57;100608.19;;;5.22;100.00
66381;BME280;53177;52.648;1.214;2022-11-14T05:53:24;100611.75;;;5.41;100.00
66381;BME280;53177;52.648;1.214;2022-11-14T05:55:50;100608.78;;;5.24;100.00
66381;BME280;53177;52.648;1.214;2022-11-14T05:58:15;100611.78;;;5.03;100.00
66381;BME280;53177;52.648;1.214;2022-11-14T06:00:41;100614.03;;;5.06;100.00
66381;BME280;53177;52.648;1.214;2022-11-14T06:03:06;100613.28;;;4.92;100.00
66381;BME280;53177;52.648;1.214;2022-11-14T06:05:33;100610.78;;;4.97;100.00
66381;BME280;53177;52.648;1.214;2022-11-14T06:07:59;100614.66;;;5.01;100.00
66381;BME280;53177;52.648;1.214;2022-11-14T06:10:26;100621.78;;;5.07;100.00
66381;BME280;53177;52.648;1.214;2022-11-14T06:12:52;100614.63;;;5.08;100.00
66381;BME280;53177;52.648;1.214;2022-11-14T06:15:17;100611.31;;;5.13;100.00
66381;BME280;53177;52.648;1.214;2022-11-14T06:17:43;100619.03;;;5.27;100.00
66381;BME280;53177;52.648;1.214;2022-11-14T06:20:09;100613.03;;;5.00;100.00
66381;BME280;53177;52.648;1.214;2022-11-14T06:22:34;100607.97;;;4.86;100.00
66381;BME280;53177;52.648;1.214;2022-11-14T06:25:03;100611.91;;;4.83;100.00
66381;BME280;53177;52.648;1.214;2022-11-14T06:27:29;100608.22;;;4.77;100.00
66381;BME280;53177;52.648;1.214;2022-11-14T06:29:54;100610.72;;;4.72;100.00
66381;BME280;53177;52.648;1.214;2022-11-14T06:32:20;100609.06;;;4.78;100.00
66381;BME280;53177;52.648;1.214;2022-11-14T06:34:45;100609.25;;;4.83;100.00
66381;BME280;53177;52.648;1.214;2022-11-14T06:37:10;100601.28;;;4.76;100.00
66381;BME280;53177;52.648;1.214;2022-11-14T06:39:36;100602.13;;;4.70;100.00
66381;BME280;53177;52.648;1.214;2022-11-14T06:42:01;100606.19;;;4.79;100.00
66381;BME280;53177;52.648;1.214;2022-11-14T06:44:27;100606.25;;;4.66;100.00
66381;BME280;53177;52.648;1.214;2022-11-14T06:46:52;100600.38;;;4.44;100.00
66381;BME280;53177;52.648;1.214;2022-11-14T06:49:17;100599.69;;;4.62;100.00
66381;BME280;53177;52.648;1.214;2022-11-14T06:51:43;100601.25;;;4.83;100.00
66381;BME280;53177;52.648;1.214;2022-11-14T06:54:11;100597.72;;;4.89;100.00
66381;BME280;53177;52.648;1.214;2022-11-14T06:56:37;100596.97;;;4.75;100.00
66381;BME280;53177;52.648;1.214;2022-11-14T06:59:02;100601.66;;;4.87;100.00
66381;BME280;53177;52.648;1.214;2022-11-14T07:01:28;100601.72;;;4.73;100.00
66381;BME280;53177;52.648;1.214;2022-11-14T07:03:55;100593.84;;;4.85;100.00
66381;BME280;53177;52.648;1.214;2022-11-14T07:06:27;100595.03;;;4.96;100.00
66381;BME280;53177;52.648;1.214;2022-11-14T07:08:56;100589.50;;;4.97;100.00
66381;BME280;53177;52.648;1.214;2022-11-14T07:11:26;100586.50;;;4.87;100.00
66381;BME280;53177;52.648;1.214;2022-11-14T07:14:00;100585.75;;;4.73;100.00
66381;BME280;53177;52.648;1.214;2022-11-14T07:16:35;100588.59;;;4.72;100.00
66381;BME280;53177;52.648;1.214;2022-11-14T07:19:03;100584.72;;;4.74;100.00
66381;BME280;53177;52.648;1.214;2022-11-14T07:21:31;100589.81;;;4.76;100.00
66381;BME280;53177;52.648;1.214;2022-11-14T07:23:57;100588.59;;;4.78;100.00
66381;BME280;53177;52.648;1.214;2022-11-14T07:26:23;100579.97;;;4.76;100.00
66381;BME280;53177;52.648;1.214;2022-11-14T07:28:49;100579.56;;;4.79;100.00
66381;BME280;53177;52.648;1.214;2022-11-14T07:31:16;100576.56;;;4.69;100.00
66381;BME280;53177;52.648;1.214;2022-11-14T07:33:43;100569.16;;;4.71;100.00
66381;BME280;53177;52.648;1.214;2022-11-14T07:36:10;100576.09;;;4.72;100.00
66381;BME280;53177;52.648;1.214;2022-11-14T07:38:37;100576.56;;;4.69;100.00
66381;BME280;53177;52.648;1.214;2022-11-14T07:41:05;100583.25;;;4.78;100.00
66381;BME280;53177;52.648;1.214;2022-11-14T07:43:32;100584.47;;;4.82;100.00
66381;BME280;53177;52.648;1.214;2022-11-14T07:45:58;100587.31;;;4.88;100.00
66381;BME280;53177;52.648;1.214;2022-11-14T07:48:29;100583.00;;;4.87;100.00
66381;BME280;53177;52.648;1.214;2022-11-14T07:50:59;100579.31;;;4.88;100.00
66381;BME280;53177;52.648;1.214;2022-11-14T07:53:26;100570.47;;;4.94;100.00
66381;BME280;53177;52.648;1.214;2022-11-14T07:55:51;100561.44;;;4.95;100.00
66381;BME280;53177;52.648;1.214;2022-11-14T07:58:17;100570.03;;;4.97;100.00
66381;BME280;53177;52.648;1.214;2022-11-14T08:00:42;100561.50;;;4.81;100.00
66381;BME280;53177;52.648;1.214;2022-11-14T08:03:08;100562.38;;;4.75;100.00
66381;BME280;53177;52.648;1.214;2022-11-14T08:05:34;100563.25;;;4.69;100.00
66381;BME280;53177;52.648;1.214;2022-11-14T08:08:00;100558.69;;;4.76;100.00
66381;BME280;53177;52.648;1.214;2022-11-14T08:10:26;100548.69;;;4.72;100.00
66381;BME280;53177;52.648;1.214;2022-11-14T08:13:01;100543.53;;;4.77;100.00
66381;BME280;53177;52.648;1.214;2022-11-14T08:15:27;100549.03;;;4.82;100.00
66381;BME280;53177;52.648;1.214;2022-11-14T08:17:57;100543.66;;;4.89;100.00
66381;BME280;53177;52.648;1.214;2022-11-14T08:20:24;100536.81;;;4.99;100.00
66381;BME280;53177;52.648;1.214;2022-11-14T08:22:51;100535.94;;;5.12;100.00
66381;BME280;53177;52.648;1.214;2022-11-14T08:25:16;100524.63;;;5.17;100.00
66381;BME280;53177;52.648;1.214;2022-11-14T08:27:41;100531.38;;;5.19;100.00
66381;BME280;53177;52.648;1.214;2022-11-14T08:30:07;100530.09;;;5.22;100.00
66381;BME280;53177;52.648;1.214;2022-11-14T08:32:33;100530.06;;;5.28;100.00
66381;BME280;53177;52.648;1.214;2022-11-14T08:34:59;100530.16;;;5.40;100.00
66381;BME280;53177;52.648;1.214;2022-11-14T08:37:24;100527.44;;;5.47;100.00
66381;BME280;53177;52.648;1.214;2022-11-14T08:39:50;100523.03;;;5.59;100.00
66381;BME280;53177;52.648;1.214;2022-11-14T08:42:15;100524.38;;;5.68;100.00
66381;BME280;53177;52.648;1.214;2022-11-14T08:44:40;100516.91;;;5.77;100.00
66381;BME280;53177;52.648;1.214;2022-11-14T08:47:06;100522.16;;;5.83;100.00
66381;BME280;53177;52.648;1.214;2022-11-14T08:49:31;100522.06;;;5.97;100.00
66381;BME280;53177;52.648;1.214;2022-11-14T08:51:57;100524.44;;;6.05;100.00
66381;BME280;53177;52.648;1.214;2022-11-14T08:54:22;100516.34;;;6.12;100.00
66381;BME280;53177;52.648;1.214;2022-11-14T08:56:48;100513.63;;;6.18;100.00
66381;BME280;53177;52.648;1.214;2022-11-14T08:59:13;100513.69;;;6.12;100.00
66381;BME280;53177;52.648;1.214;2022-11-14T09:01:39;100509.19;;;6.12;100.00
66381;BME280;53177;52.648;1.214;2022-11-14T09:04:04;100505.47;;;6.13;100.00
66381;BME280;53177;52.648;1.214;2022-11-14T09:06:29;100504.03;;;6.29;100.00
66381;BME280;53177;52.648;1.214;2022-11-14T09:08:55;100507.69;;;6.35;100.00
66381;BME280;53177;52.648;1.214;2022-11-14T09:11:20;100500.84;;;6.39;100.00
66381;BME280;53177;52.648;1.214;2022-11-14T09:13:46;100506.16;;;6.57;100.00
66381;BME280;53177;52.648;1.214;2022-11-14T09:16:11;100505.50;;;6.73;100.00
66381;BME280;53177;52.648;1.214;2022-11-14T09:18:37;100507.84;;;6.81;100.00
66381;BME280;53177;52.648;1.214;2022-11-14T09:21:04;100500.06;;;6.92;100.00
66381;BME280;53177;52.648;1.214;2022-11-14T09:23:31;100513.59;;;7.08;100.00
66381;BME280;53177;52.648;1.214;2022-11-14T09:25:57;100513.75;;;7.37;100.00
66381;BME280;53177;52.648;1.214;2022-11-14T09:28:23;100507.34;;;7.62;100.00
66381;BME280;53177;52.648;1.214;2022-11-14T09:30:49;100508.16;;;7.62;100.00
66381;BME280;53177;52.648;1.214;2022-11-14T09:33:14;100499.09;;;7.63;100.00
66381;BME280;53177;52.648;1.214;2022-11-14T09:35:40;100498.63;;;7.66;100.00
66381;BME280;53177;52.648;1.214;2022-11-14T09:38:08;100494.34;;;7.77;100.00
66381;BME280;53177;52.648;1.214;2022-11-14T09:43:17;100499.28;;;7.97;100.00
66381;BME280;53177;52.648;1.214;2022-11-14T09:45:49;100490.84;;;8.17;100.00
66381;BME280;53177;52.648;1.214;2022-11-14T09:48:19;100489.84;;;8.18;100.00
66381;BME280;53177;52.648;1.214;2022-11-14T09:50:52;100480.94;;;8.29;100.00
66381;BME280;53177;52.648;1.214;2022-11-14T09:55:57;100480.56;;;8.49;100.00
66381;BME280;53177;52.648;1.214;2022-11-14T09:58:23;100480.78;;;8.76;100.00
66381;BME280;53177;52.648;1.214;2022-11-14T10:00:54;100477.94;;;8.82;100.00
66381;BME280;53177;52.648;1.214;2022-11-14T10:12:03;100467.97;;;9.67;100.00
66381;BME280;53177;52.648;1.214;2022-11-14T10:20:44;100450.38;;;9.98;100.00
66381;BME280;53177;52.648;1.214;2022-11-14T10:25:53;100447.69;;;10.20;100.00
66381;BME280;53177;52.648;1.214;2022-11-14T10:28:28;100443.69;;;10.45;100.00
66381;BME280;53177;52.648;1.214;2022-11-14T10:38:58;100445.38;;;11.20;100.00
66381;BME280;53177;52.648;1.214;2022-11-14T10:41:27;100449.81;;;11.36;100.00
66381;BME280;53177;52.648;1.214;2022-11-14T10:43:54;100448.56;;;11.54;100.00
66381;BME280;53177;52.648;1.214;2022-11-14T10:46:31;100447.81;;;11.64;100.00
66381;BME280;53177;52.648;1.214;2022-11-14T10:48:58;100445.22;;;11.79;100.00
66381;BME280;53177;52.648;1.214;2022-11-14T10:51:37;100435.59;;;11.88;100.00
66381;BME280;53177;52.648;1.214;2022-11-14T10:57:18;100420.59;;;12.13;100.00
66381;BME280;53177;52.648;1.214;2022-11-14T10:59:44;100417.91;;;12.18;100.00
66381;BME280;53177;52.648;1.214;2022-11-14T11:02:09;100413.88;;;12.26;100.00
66381;BME280;53177;52.648;1.214;2022-11-14T11:04:37;100412.00;;;12.31;100.00
66381;BME280;53177;52.648;1.214;2022-11-14T11:09:32;100405.56;;;12.48;100.00
66381;BME280;53177;52.648;1.214;2022-11-14T11:12:26;100406.66;;;12.57;100.00
66381;BME280;53177;52.648;1.214;2022-11-14T11:15:21;100403.44;;;12.70;100.00
66381;BME280;53177;52.648;1.214;2022-11-14T11:18:02;100397.25;;;12.70;100.00
66381;BME280;53177;52.648;1.214;2022-11-14T11:20:35;100401.53;;;12.76;100.00
66381;BME280;53177;52.648;1.214;2022-11-14T11:23:05;100395.34;;;12.80;100.00
66381;BME280;53177;52.648;1.214;2022-11-14T11:25:32;100391.00;;;12.89;100.00
66381;BME280;53177;52.648;1.214;2022-11-14T11:28:16;100389.66;;;12.97;100.00
66381;BME280;53177;52.648;1.214;2022-11-14T11:30:58;100382.38;;;13.03;100.00
66381;BME280;53177;52.648;1.214;2022-11-14T11:33:30;100381.03;;;13.10;100.00
66381;BME280;53177;52.648;1.214;2022-11-14T11:35:59;100377.78;;;13.19;100.00
66381;BME280;53177;52.648;1.214;2022-11-14T11:38:27;100374.53;;;13.16;100.00
66381;BME280;53177;52.648;1.214;2022-11-14T11:41:02;100372.69;;;13.22;100.00
66381;BME280;53177;52.648;1.214;2022-11-14T11:43:35;100369.97;;;13.27;100.00
66381;BME280;53177;52.648;1.214;2022-11-14T11:46:08;100371.06;;;13.26;100.00
66381;BME280;53177;52.648;1.214;2022-11-14T11:48:39;100361.88;;;13.27;100.00
66381;BME280;53177;52.648;1.214;2022-11-14T11:51:11;100364.84;;;13.31;100.00
66381;BME280;53177;52.648;1.214;2022-11-14T11:56:40;100347.75;;;13.51;100.00
66381;BME280;53177;52.648;1.214;2022-11-14T11:59:40;100348.78;;;13.60;100.00
66381;BME280;53177;52.648;1.214;2022-11-14T12:02:27;100343.94;;;13.62;100.00
66381;BME280;53177;52.648;1.214;2022-11-14T12:04:55;100343.34;;;13.70;100.00
66381;BME280;53177;52.648;1.214;2022-11-14T12:07:28;100338.75;;;13.76;100.00
66381;BME280;53177;52.648;1.214;2022-11-14T12:10:02;100335.69;;;13.87;100.00
66381;BME280;53177;52.648;1.214;2022-11-14T12:20:55;100321.53;;;14.06;100.00
66381;BME280;53177;52.648;1.214;2022-11-14T12:31:24;100313.78;;;13.94;100.00
66381;BME280;53177;52.648;1.214;2022-11-14T12:33:57;100305.88;;;14.08;100.00
66381;BME280;53177;52.648;1.214;2022-11-14T12:36:31;100309.03;;;14.20;100.00
66381;BME280;53177;52.648;1.214;2022-11-14T12:38:58;100295.03;;;14.13;100.00
66381;BME280;53177;52.648;1.214;2022-11-14T12:41:31;100295.75;;;14.24;100.00
66381;BME280;53177;52.648;1.214;2022-11-14T12:44:31;100289.34;;;14.14;100.00
66381;BME280;53177;52.648;1.214;2022-11-14T13:00:29;100260.78;;;14.37;100.00
66381;BME280;53177;52.648;1.214;2022-11-14T13:06:00;100253.13;;;14.50;100.00
66381;BME280;53177;52.648;1.214;2022-11-14T13:14:18;100246.34;;;14.52;100.00
66381;BME280;53177;52.648;1.214;2022-11-14T13:17:24;100233.09;;;14.56;100.00
66381;BME280;53177;52.648;1.214;2022-11-14T13:33:51;100220.63;;;14.55;100.00
66381;BME280;53177;52.648;1.214;2022-11-14T13:47:07;100197.97;;;14.51;100.00
66381;BME280;53177;52.648;1.214;2022-11-14T13:52:11;100194.19;;;14.52;100.00
66381;BME280;53177;52.648;1.214;2022-11-14T13:54:44;100200.81;;;14.64;100.00
66381;BME280;53177;52.648;1.214;2022-11-14T14:07:56;100170.03;;;14.31;100.00
66381;BME280;53177;52.648;1.214;2022-11-14T14:18:44;100168.56;;;14.15;100.00
66381;BME280;53177;52.648;1.214;2022-11-14T14:22:04;100167.56;;;14.11;100.00
66381;BME280;53177;52.648;1.214;2022-11-14T14:24:16;100172.22;;;14.00;100.00
66381;BME280;53177;52.648;1.214;2022-11-14T14:26:55;100163.66;;;13.93;100.00
66381;BME280;53177;52.648;1.214;2022-11-14T14:29:57;100158.03;;;13.89;100.00
66381;BME280;53177;52.648;1.214;2022-11-14T14:32:26;100153.63;;;13.99;100.00
66381;BME280;53177;52.648;1.214;2022-11-14T14:34:51;100150.16;;;13.93;100.00
66381;BME280;53177;52.648;1.214;2022-11-14T14:37:27;100149.16;;;14.13;100.00
66381;BME280;53177;52.648;1.214;2022-11-14T14:40:00;100149.41;;;14.16;100.00
66381;BME280;53177;52.648;1.214;2022-11-14T14:42:40;100144.38;;;14.05;100.00
66381;BME280;53177;52.648;1.214;2022-11-14T14:45:15;100137.66;;;13.68;100.00
66381;BME280;53177;52.648;1.214;2022-11-14T14:47:43;100148.91;;;13.80;100.00
66381;BME280;53177;52.648;1.214;2022-11-14T14:50:23;100140.72;;;13.90;100.00
66381;BME280;53177;52.648;1.214;2022-11-14T14:53:00;100140.13;;;13.99;100.00
66381;BME280;53177;52.648;1.214;2022-11-14T14:55:31;100135.81;;;13.98;100.00
66381;BME280;53177;52.648;1.214;2022-11-14T15:01:19;100127.41;;;13.99;100.00
66381;BME280;53177;52.648;1.214;2022-11-14T15:04:23;100127.72;;;13.93;100.00